Beverly Hills, CA (90209)

5:09 AM PDT on September 30, 2016 (GMT -0700)
Laurel Canyon | | Change Station

Elev 1069 ft 34.11 °N, 118.38 °W | Updated 8 minutes ago

Clear
Clear
71.8 °F
Feels Like 77 °F
N
6.0
Wind Variable Wind from NNE

Today
High -- | Low -- °F
--% Chance of Precip.
Yesterday
High -- | Low -- °F
Precip. -- in
Pressure 30.01 in
Visibility 10.0 miles
Clouds Clear
Heat Index 77 °F
Dew Point 53 °F
Humidity 51%
Rainfall 0.00 in
Snow Depth Not available.
6:47 AM 6:38 PM
Waning Crescent, 0% visible
METAR KSMO 301151Z AUTO 00000KT 10SM CLR 19/17 A3002 RMK AO2 SLP163 T01890172 10206 20189 55003
Pressure 30.01 in
Visibility 10.0 miles
Clouds Clear
Heat Index 77 °F
Dew Point 53 °F
Humidity 51%
Rainfall 0.00 in
Snow Depth Not available.
6:47 AM 6:38 PM
Waning Crescent, 0% visible
METAR KSMO 301151Z AUTO 00000KT 10SM CLR 19/17 A3002 RMK AO2 SLP163 T01890172 10206 20189 55003

10-Day Weather Forecast

Almanac

Astronomy

Sep. 30, 2016 Rise Set
Actual Time
Civil Twilight
Nautical Twilight
Astronomical Twilight
Moon
Length of Visible Light
Length of Day
Tomorrow will be .
, % of the Moon is Illuminated

Today's Extremes

State Highs State Lows

Community

WunderPhotos

Upload Photos

1,942,706 photos uploaded!

WunderBlog® & News

Nearby

Air Quality

  Air Quality AQ Index Pollutant
Not available.

Snow Depth

Station Depth Elevation

Earthquake Activity

City Distance Mag. Time & Date
Minimum magnitude displayed is 2.5.

Coastal Water Temperatures

Place Temperature

Stations

Nearby Weather Stations

Station Location Temp. Windchill Dew Point Humidity Wind Precip. Elev Updated Type
                   

Watches & Warnings

There are currently no watches in effect.